sensor_id;sensor_type;location;lat;lon;timestamp;P1;durP1;ratioP1;P2;durP2;ratioP2
1685;SDS011;840;47.980;7.830;2022-08-19T00:01:17;9.67;;;8.77;;
1685;SDS011;840;47.980;7.830;2022-08-19T00:03:44;9.80;;;9.10;;
1685;SDS011;840;47.980;7.830;2022-08-19T00:06:10;11.23;;;7.70;;
1685;SDS011;840;47.980;7.830;2022-08-19T00:08:39;9.97;;;9.10;;
1685;SDS011;840;47.980;7.830;2022-08-19T00:11:06;8.93;;;8.20;;
1685;SDS011;840;47.980;7.830;2022-08-19T00:13:32;10.13;;;9.30;;
1685;SDS011;840;47.980;7.830;2022-08-19T00:16:00;9.67;;;8.77;;
1685;SDS011;840;47.980;7.830;2022-08-19T00:18:27;8.90;;;8.00;;
1685;SDS011;840;47.980;7.830;2022-08-19T00:20:54;8.93;;;8.23;;
1685;SDS011;840;47.980;7.830;2022-08-19T00:23:21;9.10;;;8.40;;
1685;SDS011;840;47.980;7.830;2022-08-19T00:25:49;8.20;;;7.37;;
1685;SDS011;840;47.980;7.830;2022-08-19T00:28:17;9.03;;;8.20;;
1685;SDS011;840;47.980;7.830;2022-08-19T00:30:44;8.17;;;7.43;;
1685;SDS011;840;47.980;7.830;2022-08-19T00:33:11;9.00;;;8.20;;
1685;SDS011;840;47.980;7.830;2022-08-19T00:35:38;8.73;;;8.00;;
1685;SDS011;840;47.980;7.830;2022-08-19T00:38:05;8.67;;;8.07;;
1685;SDS011;840;47.980;7.830;2022-08-19T00:40:32;9.30;;;8.60;;
1685;SDS011;840;47.980;7.830;2022-08-19T00:43:00;9.10;;;8.40;;
1685;SDS011;840;47.980;7.830;2022-08-19T00:45:27;9.90;;;8.83;;
1685;SDS011;840;47.980;7.830;2022-08-19T00:47:57;8.40;;;7.80;;
1685;SDS011;840;47.980;7.830;2022-08-19T00:50:28;9.57;;;8.40;;
1685;SDS011;840;47.980;7.830;2022-08-19T00:52:55;9.47;;;8.57;;
1685;SDS011;840;47.980;7.830;2022-08-19T00:55:24;9.90;;;9.10;;
1685;SDS011;840;47.980;7.830;2022-08-19T00:57:55;9.17;;;8.23;;
1685;SDS011;840;47.980;7.830;2022-08-19T01:00:25;8.63;;;7.67;;
1685;SDS011;840;47.980;7.830;2022-08-19T01:02:53;10.17;;;9.17;;
1685;SDS011;840;47.980;7.830;2022-08-19T01:05:21;9.80;;;8.87;;
1685;SDS011;840;47.980;7.830;2022-08-19T01:07:52;9.67;;;8.93;;
1685;SDS011;840;47.980;7.830;2022-08-19T01:10:22;9.60;;;8.80;;
1685;SDS011;840;47.980;7.830;2022-08-19T01:12:52;9.87;;;9.00;;
1685;SDS011;840;47.980;7.830;2022-08-19T01:15:21;11.93;;;10.83;;
1685;SDS011;840;47.980;7.830;2022-08-19T01:17:54;11.87;;;10.97;;
1685;SDS011;840;47.980;7.830;2022-08-19T01:20:22;12.37;;;11.30;;
1685;SDS011;840;47.980;7.830;2022-08-19T01:22:52;10.60;;;9.77;;
1685;SDS011;840;47.980;7.830;2022-08-19T01:25:22;11.47;;;10.60;;
1685;SDS011;840;47.980;7.830;2022-08-19T01:27:52;9.80;;;8.93;;
1685;SDS011;840;47.980;7.830;2022-08-19T01:30:21;9.83;;;9.03;;
1685;SDS011;840;47.980;7.830;2022-08-19T01:32:50;11.20;;;10.20;;
1685;SDS011;840;47.980;7.830;2022-08-19T01:35:18;11.53;;;10.43;;
1685;SDS011;840;47.980;7.830;2022-08-19T01:37:46;10.23;;;9.33;;
1685;SDS011;840;47.980;7.830;2022-08-19T01:40:15;10.70;;;9.80;;
1685;SDS011;840;47.980;7.830;2022-08-19T01:42:44;12.57;;;11.53;;
1685;SDS011;840;47.980;7.830;2022-08-19T01:45:25;9.73;;;8.93;;
1685;SDS011;840;47.980;7.830;2022-08-19T01:47:53;11.53;;;10.60;;
1685;SDS011;840;47.980;7.830;2022-08-19T01:50:21;10.80;;;10.00;;
1685;SDS011;840;47.980;7.830;2022-08-19T01:52:48;11.43;;;10.40;;
1685;SDS011;840;47.980;7.830;2022-08-19T01:55:17;11.27;;;10.37;;
1685;SDS011;840;47.980;7.830;2022-08-19T01:57:48;9.70;;;8.90;;
1685;SDS011;840;47.980;7.830;2022-08-19T02:00:19;10.73;;;9.93;;
1685;SDS011;840;47.980;7.830;2022-08-19T02:02:47;11.90;;;10.83;;
1685;SDS011;840;47.980;7.830;2022-08-19T02:05:13;11.97;;;10.97;;
1685;SDS011;840;47.980;7.830;2022-08-19T02:07:43;9.87;;;8.97;;
1685;SDS011;840;47.980;7.830;2022-08-19T02:10:12;9.90;;;9.10;;
1685;SDS011;840;47.980;7.830;2022-08-19T02:12:42;10.00;;;9.13;;
1685;SDS011;840;47.980;7.830;2022-08-19T02:15:09;11.03;;;9.93;;
1685;SDS011;840;47.980;7.830;2022-08-19T02:17:37;12.40;;;11.40;;
1685;SDS011;840;47.980;7.830;2022-08-19T02:20:05;10.67;;;9.77;;
1685;SDS011;840;47.980;7.830;2022-08-19T02:22:32;11.60;;;10.60;;
1685;SDS011;840;47.980;7.830;2022-08-19T02:25:00;12.53;;;11.40;;
1685;SDS011;840;47.980;7.830;2022-08-19T02:27:27;11.70;;;10.80;;
1685;SDS011;840;47.980;7.830;2022-08-19T02:29:55;11.20;;;10.20;;
1685;SDS011;840;47.980;7.830;2022-08-19T02:32:22;11.33;;;10.13;;
1685;SDS011;840;47.980;7.830;2022-08-19T02:34:49;11.47;;;10.37;;
1685;SDS011;840;47.980;7.830;2022-08-19T02:37:16;10.40;;;9.50;;
1685;SDS011;840;47.980;7.830;2022-08-19T02:40:00;11.73;;;10.37;;
1685;SDS011;840;47.980;7.830;2022-08-19T02:42:27;12.30;;;11.30;;
1685;SDS011;840;47.980;7.830;2022-08-19T02:44:56;10.83;;;10.03;;
1685;SDS011;840;47.980;7.830;2022-08-19T02:47:22;11.73;;;10.67;;
1685;SDS011;840;47.980;7.830;2022-08-19T02:49:49;11.83;;;10.83;;
1685;SDS011;840;47.980;7.830;2022-08-19T02:52:16;11.83;;;10.73;;
1685;SDS011;840;47.980;7.830;2022-08-19T02:54:43;12.83;;;11.43;;
1685;SDS011;840;47.980;7.830;2022-08-19T02:57:10;12.57;;;11.10;;
1685;SDS011;840;47.980;7.830;2022-08-19T02:59:37;11.87;;;10.83;;
1685;SDS011;840;47.980;7.830;2022-08-19T03:02:06;11.17;;;10.17;;
1685;SDS011;840;47.980;7.830;2022-08-19T03:04:32;11.67;;;10.50;;
1685;SDS011;840;47.980;7.830;2022-08-19T03:06:59;11.10;;;10.10;;
1685;SDS011;840;47.980;7.830;2022-08-19T03:09:26;12.67;;;11.67;;
1685;SDS011;840;47.980;7.830;2022-08-19T03:11:54;12.10;;;11.10;;
1685;SDS011;840;47.980;7.830;2022-08-19T03:14:21;12.97;;;11.73;;
1685;SDS011;840;47.980;7.830;2022-08-19T03:16:51;13.60;;;10.90;;
1685;SDS011;840;47.980;7.830;2022-08-19T03:19:20;13.30;;;10.73;;
1685;SDS011;840;47.980;7.830;2022-08-19T03:21:47;10.97;;;9.63;;
1685;SDS011;840;47.980;7.830;2022-08-19T03:24:15;10.13;;;9.33;;
1685;SDS011;840;47.980;7.830;2022-08-19T03:26:44;11.30;;;10.33;;
1685;SDS011;840;47.980;7.830;2022-08-19T03:29:13;12.40;;;11.10;;
1685;SDS011;840;47.980;7.830;2022-08-19T03:31:41;13.30;;;12.10;;
1685;SDS011;840;47.980;7.830;2022-08-19T03:34:09;13.27;;;12.07;;
1685;SDS011;840;47.980;7.830;2022-08-19T03:36:38;10.93;;;9.97;;
1685;SDS011;840;47.980;7.830;2022-08-19T03:39:05;11.93;;;10.70;;
1685;SDS011;840;47.980;7.830;2022-08-19T03:41:39;12.13;;;11.13;;
1685;SDS011;840;47.980;7.830;2022-08-19T03:44:07;13.67;;;12.47;;
1685;SDS011;840;47.980;7.830;2022-08-19T03:46:35;13.23;;;12.10;;
1685;SDS011;840;47.980;7.830;2022-08-19T03:49:03;12.90;;;11.90;;
1685;SDS011;840;47.980;7.830;2022-08-19T03:51:33;13.77;;;12.57;;
1685;SDS011;840;47.980;7.830;2022-08-19T03:54:04;13.67;;;11.13;;
1685;SDS011;840;47.980;7.830;2022-08-19T03:56:33;11.97;;;11.00;;
1685;SDS011;840;47.980;7.830;2022-08-19T03:59:00;13.33;;;12.23;;
1685;SDS011;840;47.980;7.830;2022-08-19T04:01:28;12.63;;;11.43;;
1685;SDS011;840;47.980;7.830;2022-08-19T04:03:56;12.90;;;11.60;;
1685;SDS011;840;47.980;7.830;2022-08-19T04:06:24;13.27;;;11.90;;
1685;SDS011;840;47.980;7.830;2022-08-19T04:08:53;11.93;;;10.93;;
1685;SDS011;840;47.980;7.830;2022-08-19T04:11:23;12.87;;;11.67;;
1685;SDS011;840;47.980;7.830;2022-08-19T04:13:52;14.47;;;13.10;;
1685;SDS011;840;47.980;7.830;2022-08-19T04:16:20;13.30;;;12.00;;
1685;SDS011;840;47.980;7.830;2022-08-19T04:18:48;12.37;;;11.27;;
1685;SDS011;840;47.980;7.830;2022-08-19T04:21:16;14.50;;;13.20;;
1685;SDS011;840;47.980;7.830;2022-08-19T04:23:45;12.93;;;11.90;;
1685;SDS011;840;47.980;7.830;2022-08-19T04:26:13;14.73;;;13.27;;
1685;SDS011;840;47.980;7.830;2022-08-19T04:28:41;11.97;;;10.87;;
1685;SDS011;840;47.980;7.830;2022-08-19T04:31:12;15.40;;;13.97;;
1685;SDS011;840;47.980;7.830;2022-08-19T04:33:40;13.70;;;10.43;;
1685;SDS011;840;47.980;7.830;2022-08-19T04:36:07;12.57;;;11.57;;
1685;SDS011;840;47.980;7.830;2022-08-19T04:38:35;13.10;;;11.80;;
1685;SDS011;840;47.980;7.830;2022-08-19T04:41:02;12.40;;;11.30;;
1685;SDS011;840;47.980;7.830;2022-08-19T04:43:48;13.93;;;12.63;;
1685;SDS011;840;47.980;7.830;2022-08-19T04:46:15;14.20;;;12.80;;
1685;SDS011;840;47.980;7.830;2022-08-19T04:48:43;14.00;;;12.70;;
1685;SDS011;840;47.980;7.830;2022-08-19T04:51:10;13.37;;;12.20;;
1685;SDS011;840;47.980;7.830;2022-08-19T04:53:39;14.87;;;13.37;;
1685;SDS011;840;47.980;7.830;2022-08-19T04:56:08;12.17;;;11.13;;
1685;SDS011;840;47.980;7.830;2022-08-19T04:58:36;14.57;;;13.20;;
1685;SDS011;840;47.980;7.830;2022-08-19T05:01:08;14.10;;;12.77;;
1685;SDS011;840;47.980;7.830;2022-08-19T05:03:35;14.80;;;13.30;;
1685;SDS011;840;47.980;7.830;2022-08-19T05:06:04;13.17;;;12.07;;
1685;SDS011;840;47.980;7.830;2022-08-19T05:08:32;13.93;;;12.73;;
1685;SDS011;840;47.980;7.830;2022-08-19T05:11:10;13.67;;;12.40;;
1685;SDS011;840;47.980;7.830;2022-08-19T05:13:38;12.80;;;11.80;;
1685;SDS011;840;47.980;7.830;2022-08-19T05:16:05;14.80;;;13.50;;
1685;SDS011;840;47.980;7.830;2022-08-19T05:18:33;13.90;;;12.70;;
1685;SDS011;840;47.980;7.830;2022-08-19T05:21:18;14.63;;;13.17;;
1685;SDS011;840;47.980;7.830;2022-08-19T05:24:03;14.33;;;13.03;;
1685;SDS011;840;47.980;7.830;2022-08-19T05:26:33;14.10;;;12.93;;
1685;SDS011;840;47.980;7.830;2022-08-19T05:29:00;12.50;;;11.50;;
1685;SDS011;840;47.980;7.830;2022-08-19T05:31:28;14.70;;;13.20;;
1685;SDS011;840;47.980;7.830;2022-08-19T05:33:56;13.90;;;12.60;;
1685;SDS011;840;47.980;7.830;2022-08-19T05:36:23;13.53;;;12.33;;
1685;SDS011;840;47.980;7.830;2022-08-19T05:38:50;14.33;;;12.93;;
1685;SDS011;840;47.980;7.830;2022-08-19T05:41:17;13.63;;;12.33;;
1685;SDS011;840;47.980;7.830;2022-08-19T05:43:45;14.70;;;13.40;;
1685;SDS011;840;47.980;7.830;2022-08-19T05:46:16;15.83;;;13.03;;
1685;SDS011;840;47.980;7.830;2022-08-19T05:48:44;12.87;;;11.57;;
1685;SDS011;840;47.980;7.830;2022-08-19T05:51:12;14.50;;;13.00;;
1685;SDS011;840;47.980;7.830;2022-08-19T05:53:39;14.63;;;13.27;;
1685;SDS011;840;47.980;7.830;2022-08-19T05:56:06;13.17;;;11.90;;
1685;SDS011;840;47.980;7.830;2022-08-19T05:58:34;14.90;;;13.60;;
1685;SDS011;840;47.980;7.830;2022-08-19T06:01:01;12.17;;;11.10;;
1685;SDS011;840;47.980;7.830;2022-08-19T06:03:30;12.43;;;11.43;;
1685;SDS011;840;47.980;7.830;2022-08-19T06:05:58;12.40;;;11.37;;
1685;SDS011;840;47.980;7.830;2022-08-19T06:08:26;12.20;;;11.10;;
1685;SDS011;840;47.980;7.830;2022-08-19T06:10:53;11.07;;;10.07;;
1685;SDS011;840;47.980;7.830;2022-08-19T06:13:20;11.80;;;10.80;;
1685;SDS011;840;47.980;7.830;2022-08-19T06:15:48;10.87;;;10.07;;
1685;SDS011;840;47.980;7.830;2022-08-19T06:18:15;11.97;;;10.90;;
1685;SDS011;840;47.980;7.830;2022-08-19T06:20:42;10.00;;;9.10;;
1685;SDS011;840;47.980;7.830;2022-08-19T06:23:09;10.97;;;10.07;;
1685;SDS011;840;47.980;7.830;2022-08-19T06:25:37;10.37;;;9.47;;
1685;SDS011;840;47.980;7.830;2022-08-19T06:28:05;11.43;;;10.27;;
1685;SDS011;840;47.980;7.830;2022-08-19T06:30:31;11.50;;;10.50;;
1685;SDS011;840;47.980;7.830;2022-08-19T06:32:58;11.23;;;10.33;;
1685;SDS011;840;47.980;7.830;2022-08-19T06:35:25;12.27;;;11.03;;
1685;SDS011;840;47.980;7.830;2022-08-19T06:37:51;10.37;;;9.50;;
1685;SDS011;840;47.980;7.830;2022-08-19T06:40:18;10.10;;;9.17;;
1685;SDS011;840;47.980;7.830;2022-08-19T06:42:47;11.23;;;10.33;;
1685;SDS011;840;47.980;7.830;2022-08-19T06:45:13;10.60;;;9.60;;
1685;SDS011;840;47.980;7.830;2022-08-19T06:47:40;10.07;;;9.27;;
1685;SDS011;840;47.980;7.830;2022-08-19T06:50:13;8.87;;;8.17;;
1685;SDS011;840;47.980;7.830;2022-08-19T06:52:40;9.70;;;8.90;;
1685;SDS011;840;47.980;7.830;2022-08-19T06:55:07;10.57;;;9.77;;
1685;SDS011;840;47.980;7.830;2022-08-19T06:57:34;9.43;;;8.63;;
1685;SDS011;840;47.980;7.830;2022-08-19T07:00:02;10.03;;;9.13;;
1685;SDS011;840;47.980;7.830;2022-08-19T07:02:31;10.90;;;9.90;;
1685;SDS011;840;47.980;7.830;2022-08-19T07:05:02;10.77;;;9.77;;
1685;SDS011;840;47.980;7.830;2022-08-19T07:07:30;12.80;;;11.70;;
1685;SDS011;840;47.980;7.830;2022-08-19T07:09:57;10.73;;;9.83;;
1685;SDS011;840;47.980;7.830;2022-08-19T07:12:24;10.73;;;9.83;;
1685;SDS011;840;47.980;7.830;2022-08-19T07:14:51;12.23;;;11.13;;
1685;SDS011;840;47.980;7.830;2022-08-19T07:17:19;15.67;;;14.07;;
1685;SDS011;840;47.980;7.830;2022-08-19T07:19:46;11.30;;;10.40;;
1685;SDS011;840;47.980;7.830;2022-08-19T07:22:15;13.90;;;12.60;;
1685;SDS011;840;47.980;7.830;2022-08-19T07:24:42;25.37;;;18.60;;
1685;SDS011;840;47.980;7.830;2022-08-19T07:27:09;12.57;;;11.47;;
1685;SDS011;840;47.980;7.830;2022-08-19T07:29:36;12.53;;;11.53;;
1685;SDS011;840;47.980;7.830;2022-08-19T07:32:03;12.53;;;11.10;;
1685;SDS011;840;47.980;7.830;2022-08-19T07:34:32;12.27;;;11.27;;
1685;SDS011;840;47.980;7.830;2022-08-19T07:37:01;12.07;;;11.10;;
1685;SDS011;840;47.980;7.830;2022-08-19T07:39:29;13.90;;;12.50;;
1685;SDS011;840;47.980;7.830;2022-08-19T07:41:57;11.60;;;10.43;;
1685;SDS011;840;47.980;7.830;2022-08-19T07:44:26;13.57;;;12.47;;
1685;SDS011;840;47.980;7.830;2022-08-19T07:46:54;14.83;;;13.43;;
1685;SDS011;840;47.980;7.830;2022-08-19T07:49:23;15.50;;;13.67;;
1685;SDS011;840;47.980;7.830;2022-08-19T07:51:52;14.40;;;13.10;;
1685;SDS011;840;47.980;7.830;2022-08-19T07:54:21;14.00;;;12.60;;
1685;SDS011;840;47.980;7.830;2022-08-19T07:56:49;14.93;;;13.50;;
1685;SDS011;840;47.980;7.830;2022-08-19T07:59:17;14.47;;;13.17;;
1685;SDS011;840;47.980;7.830;2022-08-19T08:01:45;16.23;;;14.53;;
1685;SDS011;840;47.980;7.830;2022-08-19T08:04:12;14.27;;;12.97;;
1685;SDS011;840;47.980;7.830;2022-08-19T08:06:59;15.57;;;14.10;;
1685;SDS011;840;47.980;7.830;2022-08-19T08:09:43;17.00;;;15.50;;
1685;SDS011;840;47.980;7.830;2022-08-19T08:12:11;17.53;;;15.83;;
1685;SDS011;840;47.980;7.830;2022-08-19T08:14:41;16.17;;;14.67;;
1685;SDS011;840;47.980;7.830;2022-08-19T08:17:11;15.67;;;14.33;;
1685;SDS011;840;47.980;7.830;2022-08-19T08:19:40;15.40;;;13.83;;
1685;SDS011;840;47.980;7.830;2022-08-19T08:22:09;16.87;;;15.20;;
1685;SDS011;840;47.980;7.830;2022-08-19T08:25:00;15.70;;;14.30;;
1685;SDS011;840;47.980;7.830;2022-08-19T08:27:28;16.13;;;14.53;;
1685;SDS011;840;47.980;7.830;2022-08-19T08:29:56;15.43;;;14.03;;
1685;SDS011;840;47.980;7.830;2022-08-19T08:32:23;16.63;;;15.03;;
1685;SDS011;840;47.980;7.830;2022-08-19T08:34:50;15.10;;;13.80;;
1685;SDS011;840;47.980;7.830;2022-08-19T08:37:19;17.40;;;15.60;;
1685;SDS011;840;47.980;7.830;2022-08-19T08:39:47;16.60;;;15.00;;
1685;SDS011;840;47.980;7.830;2022-08-19T08:42:14;17.00;;;15.43;;
1685;SDS011;840;47.980;7.830;2022-08-19T08:44:47;17.30;;;15.73;;
1685;SDS011;840;47.980;7.830;2022-08-19T08:47:19;18.73;;;16.93;;
1685;SDS011;840;47.980;7.830;2022-08-19T08:49:49;18.23;;;16.43;;
1685;SDS011;840;47.980;7.830;2022-08-19T08:52:22;17.63;;;16.17;;
1685;SDS011;840;47.980;7.830;2022-08-19T08:54:53;17.10;;;15.43;;
1685;SDS011;840;47.980;7.830;2022-08-19T08:57:24;15.97;;;14.40;;
1685;SDS011;840;47.980;7.830;2022-08-19T08:59:57;16.80;;;15.10;;
1685;SDS011;840;47.980;7.830;2022-08-19T09:02:29;18.60;;;16.80;;
1685;SDS011;840;47.980;7.830;2022-08-19T09:04:56;18.40;;;16.73;;
1685;SDS011;840;47.980;7.830;2022-08-19T09:07:28;18.93;;;17.33;;
1685;SDS011;840;47.980;7.830;2022-08-19T09:10:07;18.50;;;16.70;;
1685;SDS011;840;47.980;7.830;2022-08-19T09:12:44;19.60;;;17.70;;
1685;SDS011;840;47.980;7.830;2022-08-19T09:15:22;19.23;;;17.20;;
1685;SDS011;840;47.980;7.830;2022-08-19T09:17:53;18.77;;;17.07;;
1685;SDS011;840;47.980;7.830;2022-08-19T09:20:21;20.00;;;18.07;;
1685;SDS011;840;47.980;7.830;2022-08-19T09:22:50;19.10;;;17.40;;
1685;SDS011;840;47.980;7.830;2022-08-19T09:25:18;18.30;;;16.60;;
1685;SDS011;840;47.980;7.830;2022-08-19T09:27:46;16.27;;;14.90;;
1685;SDS011;840;47.980;7.830;2022-08-19T09:30:14;18.13;;;16.40;;
1685;SDS011;840;47.980;7.830;2022-08-19T09:32:44;19.20;;;17.50;;
1685;SDS011;840;47.980;7.830;2022-08-19T09:35:11;17.23;;;15.43;;
1685;SDS011;840;47.980;7.830;2022-08-19T09:37:39;20.80;;;18.60;;
1685;SDS011;840;47.980;7.830;2022-08-19T09:40:09;20.13;;;18.43;;
1685;SDS011;840;47.980;7.830;2022-08-19T09:42:37;17.57;;;15.77;;
1685;SDS011;840;47.980;7.830;2022-08-19T09:45:04;19.53;;;17.57;;
1685;SDS011;840;47.980;7.830;2022-08-19T09:47:31;18.90;;;16.87;;
1685;SDS011;840;47.980;7.830;2022-08-19T09:50:01;18.93;;;17.13;;
1685;SDS011;840;47.980;7.830;2022-08-19T09:52:28;19.40;;;17.60;;
1685;SDS011;840;47.980;7.830;2022-08-19T09:54:54;19.90;;;18.00;;
1685;SDS011;840;47.980;7.830;2022-08-19T09:57:22;19.37;;;17.47;;
1685;SDS011;840;47.980;7.830;2022-08-19T09:59:49;18.67;;;16.90;;
1685;SDS011;840;47.980;7.830;2022-08-19T10:02:16;19.00;;;17.20;;
1685;SDS011;840;47.980;7.830;2022-08-19T10:04:43;19.47;;;17.77;;
1685;SDS011;840;47.980;7.830;2022-08-19T10:07:28;18.57;;;16.90;;
1685;SDS011;840;47.980;7.830;2022-08-19T10:09:55;18.73;;;17.03;;
1685;SDS011;840;47.980;7.830;2022-08-19T10:12:23;19.03;;;17.33;;
1685;SDS011;840;47.980;7.830;2022-08-19T10:14:53;20.33;;;16.73;;
1685;SDS011;840;47.980;7.830;2022-08-19T10:17:20;18.13;;;16.53;;
1685;SDS011;840;47.980;7.830;2022-08-19T10:19:47;18.00;;;16.37;;
1685;SDS011;840;47.980;7.830;2022-08-19T10:22:14;18.77;;;16.80;;
1685;SDS011;840;47.980;7.830;2022-08-19T10:24:41;20.70;;;18.87;;
1685;SDS011;840;47.980;7.830;2022-08-19T10:27:07;17.90;;;16.10;;
1685;SDS011;840;47.980;7.830;2022-08-19T10:29:35;17.63;;;15.83;;
1685;SDS011;840;47.980;7.830;2022-08-19T10:32:03;16.97;;;15.47;;
1685;SDS011;840;47.980;7.830;2022-08-19T10:34:33;22.40;;;20.40;;
1685;SDS011;840;47.980;7.830;2022-08-19T10:37:02;20.20;;;16.57;;
1685;SDS011;840;47.980;7.830;2022-08-19T10:39:31;17.33;;;15.83;;
1685;SDS011;840;47.980;7.830;2022-08-19T10:41:58;18.30;;;16.53;;
1685;SDS011;840;47.980;7.830;2022-08-19T10:44:29;19.30;;;17.43;;
1685;SDS011;840;47.980;7.830;2022-08-19T10:46:59;17.47;;;15.97;;
1685;SDS011;840;47.980;7.830;2022-08-19T10:49:25;19.20;;;17.40;;
1685;SDS011;840;47.980;7.830;2022-08-19T10:51:52;17.07;;;15.60;;
1685;SDS011;840;47.980;7.830;2022-08-19T10:54:36;19.30;;;17.43;;
1685;SDS011;840;47.980;7.830;2022-08-19T10:57:21;18.73;;;17.00;;
1685;SDS011;840;47.980;7.830;2022-08-19T10:59:54;20.20;;;18.10;;
1685;SDS011;840;47.980;7.830;2022-08-19T11:02:22;19.93;;;17.97;;
1685;SDS011;840;47.980;7.830;2022-08-19T11:04:49;21.40;;;19.27;;
1685;SDS011;840;47.980;7.830;2022-08-19T11:07:16;19.80;;;17.90;;
1685;SDS011;840;47.980;7.830;2022-08-19T11:09:43;20.60;;;18.70;;
1685;SDS011;840;47.980;7.830;2022-08-19T11:12:11;20.67;;;18.53;;
1685;SDS011;840;47.980;7.830;2022-08-19T11:14:40;18.90;;;17.00;;
1685;SDS011;840;47.980;7.830;2022-08-19T11:17:07;17.77;;;16.17;;
1685;SDS011;840;47.980;7.830;2022-08-19T11:19:35;16.17;;;14.43;;
1685;SDS011;840;47.980;7.830;2022-08-19T11:22:01;15.27;;;14.00;;
1685;SDS011;840;47.980;7.830;2022-08-19T11:24:28;17.13;;;15.37;;
1685;SDS011;840;47.980;7.830;2022-08-19T11:27:00;17.70;;;15.90;;
1685;SDS011;840;47.980;7.830;2022-08-19T11:29:29;17.23;;;15.63;;
1685;SDS011;840;47.980;7.830;2022-08-19T11:31:56;20.60;;;18.70;;
1685;SDS011;840;47.980;7.830;2022-08-19T11:34:24;18.50;;;16.80;;
1685;SDS011;840;47.980;7.830;2022-08-19T11:36:54;18.00;;;16.20;;
1685;SDS011;840;47.980;7.830;2022-08-19T11:39:24;23.33;;;17.17;;
1685;SDS011;840;47.980;7.830;2022-08-19T11:41:52;19.20;;;17.30;;
1685;SDS011;840;47.980;7.830;2022-08-19T11:44:18;22.97;;;20.70;;
1685;SDS011;840;47.980;7.830;2022-08-19T11:46:45;23.40;;;21.10;;
1685;SDS011;840;47.980;7.830;2022-08-19T11:49:12;19.00;;;17.10;;
1685;SDS011;840;47.980;7.830;2022-08-19T11:51:40;22.80;;;16.30;;
1685;SDS011;840;47.980;7.830;2022-08-19T11:54:13;21.93;;;19.00;;
1685;SDS011;840;47.980;7.830;2022-08-19T11:56:41;25.00;;;22.50;;
1685;SDS011;840;47.980;7.830;2022-08-19T11:59:08;24.73;;;22.07;;
1685;SDS011;840;47.980;7.830;2022-08-19T12:01:41;24.17;;;21.80;;
1685;SDS011;840;47.980;7.830;2022-08-19T12:04:08;21.40;;;19.40;;
1685;SDS011;840;47.980;7.830;2022-08-19T12:06:36;22.13;;;19.83;;
1685;SDS011;840;47.980;7.830;2022-08-19T12:09:05;21.40;;;19.00;;
1685;SDS011;840;47.980;7.830;2022-08-19T12:11:35;20.13;;;17.93;;
1685;SDS011;840;47.980;7.830;2022-08-19T12:14:02;20.17;;;18.27;;
1685;SDS011;840;47.980;7.830;2022-08-19T12:16:30;19.83;;;17.93;;
1685;SDS011;840;47.980;7.830;2022-08-19T12:18:57;20.13;;;18.33;;
1685;SDS011;840;47.980;7.830;2022-08-19T12:21:28;19.73;;;17.87;;
1685;SDS011;840;47.980;7.830;2022-08-19T12:23:56;18.47;;;16.83;;
1685;SDS011;840;47.980;7.830;2022-08-19T12:26:24;18.40;;;16.87;;
1685;SDS011;840;47.980;7.830;2022-08-19T12:28:54;18.03;;;16.43;;
1685;SDS011;840;47.980;7.830;2022-08-19T12:31:21;17.70;;;16.00;;
1685;SDS011;840;47.980;7.830;2022-08-19T12:33:47;15.23;;;13.93;;
1685;SDS011;840;47.980;7.830;2022-08-19T12:36:14;15.23;;;13.93;;
1685;SDS011;840;47.980;7.830;2022-08-19T12:38:42;15.10;;;13.63;;
1685;SDS011;840;47.980;7.830;2022-08-19T12:41:10;18.47;;;16.77;;
1685;SDS011;840;47.980;7.830;2022-08-19T12:43:38;14.83;;;13.50;;
1685;SDS011;840;47.980;7.830;2022-08-19T12:46:07;13.20;;;12.10;;
1685;SDS011;840;47.980;7.830;2022-08-19T12:48:34;16.30;;;14.80;;
1685;SDS011;840;47.980;7.830;2022-08-19T12:51:05;15.30;;;13.87;;
1685;SDS011;840;47.980;7.830;2022-08-19T12:53:33;13.40;;;12.13;;
1685;SDS011;840;47.980;7.830;2022-08-19T12:56:00;15.47;;;14.17;;
1685;SDS011;840;47.980;7.830;2022-08-19T12:58:28;15.83;;;14.70;;
1685;SDS011;840;47.980;7.830;2022-08-19T13:00:56;14.57;;;13.43;;
1685;SDS011;840;47.980;7.830;2022-08-19T13:03:24;15.73;;;14.37;;
1685;SDS011;840;47.980;7.830;2022-08-19T13:05:54;14.70;;;13.40;;
1685;SDS011;840;47.980;7.830;2022-08-19T13:08:21;14.27;;;12.87;;
1685;SDS011;840;47.980;7.830;2022-08-19T13:10:48;15.57;;;14.37;;
1685;SDS011;840;47.980;7.830;2022-08-19T13:13:15;18.50;;;16.57;;
1685;SDS011;840;47.980;7.830;2022-08-19T13:15:42;16.20;;;14.40;;
1685;SDS011;840;47.980;7.830;2022-08-19T13:18:10;17.53;;;15.93;;
1685;SDS011;840;47.980;7.830;2022-08-19T13:20:39;16.10;;;14.70;;
1685;SDS011;840;47.980;7.830;2022-08-19T13:23:06;14.60;;;13.20;;
1685;SDS011;840;47.980;7.830;2022-08-19T13:25:35;15.67;;;14.33;;
1685;SDS011;840;47.980;7.830;2022-08-19T13:28:03;17.00;;;15.60;;
1685;SDS011;840;47.980;7.830;2022-08-19T13:30:31;14.70;;;13.20;;
1685;SDS011;840;47.980;7.830;2022-08-19T13:33:16;15.30;;;13.80;;
1685;SDS011;840;47.980;7.830;2022-08-19T13:35:46;16.53;;;14.77;;
1685;SDS011;840;47.980;7.830;2022-08-19T13:38:14;13.60;;;12.47;;
1685;SDS011;840;47.980;7.830;2022-08-19T13:40:42;14.17;;;12.97;;
1685;SDS011;840;47.980;7.830;2022-08-19T13:43:10;14.87;;;13.60;;
1685;SDS011;840;47.980;7.830;2022-08-19T13:45:36;13.50;;;12.50;;
1685;SDS011;840;47.980;7.830;2022-08-19T13:48:04;14.80;;;13.23;;
1685;SDS011;840;47.980;7.830;2022-08-19T13:50:33;12.90;;;11.90;;
1685;SDS011;840;47.980;7.830;2022-08-19T13:53:04;11.23;;;10.33;;
1685;SDS011;840;47.980;7.830;2022-08-19T13:55:31;11.27;;;10.47;;
1685;SDS011;840;47.980;7.830;2022-08-19T13:57:59;11.37;;;10.37;;
1685;SDS011;840;47.980;7.830;2022-08-19T14:00:28;10.77;;;9.87;;
1685;SDS011;840;47.980;7.830;2022-08-19T14:02:57;12.10;;;9.20;;
1685;SDS011;840;47.980;7.830;2022-08-19T14:05:25;10.90;;;10.10;;
1685;SDS011;840;47.980;7.830;2022-08-19T14:07:53;10.63;;;9.87;;
1685;SDS011;840;47.980;7.830;2022-08-19T14:10:22;10.33;;;9.40;;
1685;SDS011;840;47.980;7.830;2022-08-19T14:12:49;10.30;;;9.60;;
1685;SDS011;840;47.980;7.830;2022-08-19T14:15:20;10.30;;;9.67;;
1685;SDS011;840;47.980;7.830;2022-08-19T14:17:47;9.60;;;8.80;;
1685;SDS011;840;47.980;7.830;2022-08-19T14:20:15;10.73;;;10.03;;
1685;SDS011;840;47.980;7.830;2022-08-19T14:22:42;10.27;;;9.43;;
1685;SDS011;840;47.980;7.830;2022-08-19T14:25:11;10.73;;;9.83;;
1685;SDS011;840;47.980;7.830;2022-08-19T14:27:41;11.97;;;10.93;;
1685;SDS011;840;47.980;7.830;2022-08-19T14:30:09;11.10;;;10.20;;
1685;SDS011;840;47.980;7.830;2022-08-19T14:32:37;12.30;;;11.30;;
1685;SDS011;840;47.980;7.830;2022-08-19T14:35:04;11.90;;;10.90;;
1685;SDS011;840;47.980;7.830;2022-08-19T14:37:33;13.03;;;12.00;;
1685;SDS011;840;47.980;7.830;2022-08-19T14:40:00;13.90;;;12.20;;
1685;SDS011;840;47.980;7.830;2022-08-19T14:42:27;13.87;;;12.50;;
1685;SDS011;840;47.980;7.830;2022-08-19T14:44:58;14.20;;;13.00;;
1685;SDS011;840;47.980;7.830;2022-08-19T14:47:25;13.43;;;12.23;;
1685;SDS011;840;47.980;7.830;2022-08-19T14:49:52;13.00;;;12.00;;
1685;SDS011;840;47.980;7.830;2022-08-19T14:52:19;15.00;;;13.90;;
1685;SDS011;840;47.980;7.830;2022-08-19T14:54:46;13.57;;;12.53;;
1685;SDS011;840;47.980;7.830;2022-08-19T14:57:14;13.07;;;11.97;;
1685;SDS011;840;47.980;7.830;2022-08-19T14:59:41;15.90;;;14.50;;
1685;SDS011;840;47.980;7.830;2022-08-19T15:02:09;15.17;;;13.97;;
1685;SDS011;840;47.980;7.830;2022-08-19T15:04:36;16.50;;;14.80;;
1685;SDS011;840;47.980;7.830;2022-08-19T15:07:03;16.13;;;14.80;;
1685;SDS011;840;47.980;7.830;2022-08-19T15:09:32;16.30;;;14.90;;
1685;SDS011;840;47.980;7.830;2022-08-19T15:11:59;15.10;;;13.70;;
1685;SDS011;840;47.980;7.830;2022-08-19T15:14:29;15.87;;;14.57;;